createdAt,value
2017-11-03T00:01:37.461Z,74.00
2017-11-03T00:04:05.509Z,73.80
2017-11-03T00:06:33.579Z,74.40
2017-11-03T00:09:02.398Z,72.90
2017-11-03T00:11:30.488Z,72.90
2017-11-03T00:13:58.549Z,74.00
2017-11-03T00:16:26.621Z,73.00
2017-11-03T00:18:55.436Z,72.50
2017-11-03T00:21:24.284Z,72.60
2017-11-03T00:23:52.342Z,72.60
2017-11-03T00:26:20.397Z,73.10
2017-11-03T00:28:48.481Z,73.30
2017-11-03T00:31:16.538Z,71.50
2017-11-03T00:33:44.598Z,72.80
2017-11-03T00:36:12.686Z,73.30
2017-11-03T00:38:40.745Z,73.20
2017-11-03T00:41:08.805Z,73.30
2017-11-03T00:43:37.646Z,73.00
2017-11-03T00:46:05.702Z,72.30
2017-11-03T00:48:33.786Z,72.10
2017-11-03T00:51:02.610Z,71.70
2017-11-03T00:53:30.666Z,71.10
2017-11-03T00:55:58.738Z,72.10
2017-11-03T00:58:26.790Z,72.10
2017-11-03T01:00:54.863Z,70.50
2017-11-03T01:03:23.686Z,71.40
2017-11-03T01:05:51.761Z,72.60
2017-11-03T01:08:19.838Z,71.10
2017-11-03T01:10:47.893Z,70.50
2017-11-03T01:13:15.973Z,70.50
2017-11-03T01:15:44.035Z,69.60
2017-11-03T01:18:12.108Z,69.90
2017-11-03T01:20:41.685Z,70.80
2017-11-03T01:23:09.748Z,69.70
2017-11-03T01:25:37.807Z,70.10
2017-11-03T01:28:06.647Z,69.30
2017-11-03T01:30:34.699Z,69.50
2017-11-03T01:33:02.777Z,69.20
2017-11-03T01:35:30.825Z,70.90
2017-11-03T01:37:59.667Z,69.00
2017-11-03T01:40:27.722Z,69.10
2017-11-03T01:42:55.782Z,68.70
2017-11-03T01:45:23.845Z,68.40
2017-11-03T01:47:51.902Z,68.20
2017-11-03T01:50:19.973Z,69.00
2017-11-03T01:52:48.053Z,68.60
2017-11-03T01:55:16.889Z,69.40
2017-11-03T01:57:45.358Z,69.40
2017-11-03T02:00:13.418Z,70.00
2017-11-03T02:02:41.883Z,70.90
2017-11-03T02:05:09.937Z,70.10
2017-11-03T02:07:38.013Z,69.50
2017-11-03T02:10:06.466Z,69.30
2017-11-03T02:12:35.281Z,69.90
2017-11-03T02:15:03.349Z,70.20
2017-11-03T02:17:31.419Z,69.80
2017-11-03T02:19:59.473Z,70.00
2017-11-03T02:22:27.538Z,70.90
2017-11-03T02:24:56.000Z,70.60
2017-11-03T02:27:24.061Z,70.60
2017-11-03T02:29:52.142Z,69.60
2017-11-03T02:32:20.195Z,69.40
2017-11-03T02:34:48.249Z,70.00
2017-11-03T02:37:16.321Z,72.60
2017-11-03T02:39:44.381Z,71.20
2017-11-03T02:42:12.830Z,70.70
2017-11-03T02:44:41.670Z,72.20
2017-11-03T02:47:09.730Z,71.70
2017-11-03T02:49:37.809Z,71.70
2017-11-03T02:52:05.866Z,71.50
2017-11-03T02:54:33.917Z,72.00
2017-11-03T02:57:03.135Z,72.60
2017-11-03T02:59:31.200Z,73.20
2017-11-03T03:01:59.262Z,72.50
2017-11-03T03:04:28.100Z,71.80
2017-11-03T03:06:56.157Z,70.80
2017-11-03T03:09:24.209Z,71.10
2017-11-03T03:11:52.295Z,72.00
2017-11-03T03:14:21.126Z,72.30
2017-11-03T03:16:49.948Z,74.40
2017-11-03T03:19:18.011Z,74.40
2017-11-03T03:21:46.466Z,74.90
2017-11-03T03:24:14.535Z,74.40
2017-11-03T03:26:42.995Z,75.50
2017-11-03T03:29:11.059Z,76.90
2017-11-03T03:31:39.121Z,80.60
2017-11-03T03:34:07.195Z,77.90
2017-11-03T03:36:35.265Z,74.50
2017-11-03T03:39:03.326Z,72.40
2017-11-03T03:44:00.726Z,70.60
2017-11-03T03:46:29.569Z,69.40
2017-11-03T03:48:58.026Z,68.80
2017-11-03T03:53:55.426Z,65.20
2017-11-03T03:56:24.617Z,64.80
2017-11-03T03:58:52.694Z,66.70
2017-11-03T04:03:50.078Z,66.70
2017-11-03T04:06:18.917Z,66.50
2017-11-03T04:08:46.985Z,66.50
2017-11-03T04:11:15.077Z,66.50
2017-11-03T04:13:43.891Z,66.50
2017-11-03T04:16:11.945Z,65.30
2017-11-03T04:18:40.786Z,64.80
2017-11-03T04:21:09.243Z,64.90
2017-11-03T04:23:37.293Z,63.70
2017-11-03T04:26:05.763Z,64.30
2017-11-03T04:28:34.600Z,64.70
2017-11-03T04:31:02.697Z,62.20
2017-11-03T04:33:31.150Z,62.80
2017-11-03T04:35:59.222Z,62.30
2017-11-03T04:38:27.281Z,65.30
2017-11-03T04:40:55.357Z,64.30
2017-11-03T04:43:23.409Z,63.40
2017-11-03T04:45:51.481Z,63.70
2017-11-03T04:48:19.553Z,65.20
2017-11-03T04:50:48.398Z,65.10
2017-11-03T04:53:16.450Z,63.30
2017-11-03T04:55:44.542Z,63.30
2017-11-03T04:58:12.588Z,63.90
2017-11-03T05:03:10.398Z,62.30
2017-11-03T05:05:38.458Z,62.30
2017-11-03T05:08:06.543Z,61.70
2017-11-03T05:10:34.598Z,60.00
2017-11-03T05:13:02.649Z,64.70
2017-11-03T05:15:31.494Z,62.90
2017-11-03T05:17:59.587Z,62.00
2017-11-03T05:20:27.628Z,62.70
2017-11-03T05:22:56.834Z,62.40
2017-11-03T05:25:24.884Z,62.90
2017-11-03T05:27:52.959Z,61.90
2017-11-03T05:30:21.022Z,62.30
2017-11-03T05:32:49.085Z,61.00
2017-11-03T05:35:17.903Z,63.70
2017-11-03T05:37:45.969Z,63.10
2017-11-03T05:42:44.124Z,65.20
2017-11-03T05:45:12.181Z,66.70
2017-11-03T05:47:40.245Z,67.30
2017-11-03T05:50:08.305Z,67.30
2017-11-03T05:52:37.139Z,70.80
2017-11-03T05:55:05.210Z,67.70
2017-11-03T05:57:34.049Z,71.80
2017-11-03T06:02:31.437Z,71.40
2017-11-03T06:04:59.507Z,75.50
2017-11-03T06:07:29.099Z,74.50
2017-11-03T06:12:33.442Z,72.00
2017-11-03T06:15:02.273Z,72.10
2017-11-03T06:17:30.345Z,74.40
2017-11-03T06:19:59.909Z,73.90
2017-11-03T06:22:28.771Z,74.70
2017-11-03T06:24:56.914Z,74.00
2017-11-03T06:27:24.982Z,73.00
2017-11-03T06:29:53.449Z,74.50
2017-11-03T06:34:50.941Z,73.20
2017-11-03T06:37:19.113Z,75.80
2017-11-03T06:39:47.284Z,74.50
2017-11-03T06:42:15.365Z,72.10
2017-11-03T06:44:43.534Z,73.80
2017-11-03T06:47:11.615Z,73.10
2017-11-03T06:49:39.779Z,73.10
2017-11-03T06:52:07.856Z,71.40
2017-11-03T06:54:35.914Z,72.10
2017-11-03T06:57:03.978Z,73.10
2017-11-03T06:59:32.070Z,74.60
2017-11-03T07:02:00.128Z,72.10
2017-11-03T07:04:28.197Z,74.20
2017-11-03T07:06:56.675Z,71.10
2017-11-03T07:09:24.742Z,70.00
2017-11-03T07:11:52.831Z,72.20
2017-11-03T07:14:21.018Z,70.30
2017-11-03T07:16:49.214Z,69.70
2017-11-03T07:19:17.689Z,67.70
2017-11-03T07:21:45.841Z,68.20
2017-11-03T07:24:13.914Z,68.40
2017-11-03T07:26:42.008Z,66.60
2017-11-03T07:29:10.057Z,65.60
2017-11-03T07:31:38.896Z,63.20
2017-11-03T07:34:07.019Z,60.30
2017-11-03T07:36:35.194Z,60.60
2017-11-03T07:39:03.253Z,59.70
2017-11-03T07:41:31.334Z,60.20
2017-11-03T07:43:59.400Z,60.50
2017-11-03T07:46:27.458Z,59.50
2017-11-03T07:48:55.550Z,59.60
2017-11-03T07:51:23.617Z,56.80
2017-11-03T07:53:51.699Z,53.40
2017-11-03T07:58:49.618Z,50.40
2017-11-03T08:01:17.692Z,50.90
2017-11-03T08:03:45.755Z,48.10
2017-11-03T08:06:14.301Z,47.40
2017-11-03T08:08:42.477Z,46.10
2017-11-03T08:11:10.553Z,43.90
2017-11-03T08:13:38.616Z,45.10
2017-11-03T08:16:06.688Z,44.20
2017-11-03T08:18:35.884Z,43.20
2017-11-03T08:21:03.962Z,40.70
2017-11-03T08:23:32.042Z,37.50
2017-11-03T08:26:00.209Z,37.10
2017-11-03T08:28:28.381Z,37.10
2017-11-03T08:30:57.282Z,35.80
2017-11-03T08:33:25.370Z,34.60
2017-11-03T08:35:53.446Z,34.00
2017-11-03T08:38:21.597Z,34.50
2017-11-03T08:40:49.773Z,32.80
2017-11-03T08:43:17.944Z,33.50
2017-11-03T08:45:46.018Z,33.20
2017-11-03T08:48:14.185Z,32.20
2017-11-03T08:50:42.370Z,31.20
2017-11-03T08:53:11.933Z,31.80
2017-11-03T08:55:41.577Z,28.90
2017-11-03T08:58:10.166Z,29.20
2017-11-03T09:00:38.238Z,29.20
2017-11-03T09:03:06.309Z,28.20
2017-11-03T09:05:34.480Z,27.90
2017-11-03T09:08:02.536Z,28.00
2017-11-03T09:10:30.631Z,28.00
2017-11-03T09:12:58.802Z,27.50
2017-11-03T09:15:26.873Z,27.60
2017-11-03T09:17:54.932Z,27.50
2017-11-03T09:20:23.777Z,26.80
2017-11-03T09:22:51.914Z,26.30
2017-11-03T09:25:19.981Z,26.50
2017-11-03T09:27:48.870Z,25.70
2017-11-03T09:30:16.937Z,27.00
2017-11-03T09:32:45.017Z,27.20
2017-11-03T09:35:13.117Z,28.00
2017-11-03T09:37:41.252Z,27.80
2017-11-03T09:40:10.563Z,27.60
2017-11-03T09:42:38.738Z,27.50
2017-11-03T09:45:06.806Z,28.10
2017-11-03T09:47:34.869Z,30.00
2017-11-03T09:50:02.937Z,32.40
2017-11-03T09:52:31.005Z,36.80
2017-11-03T09:54:59.137Z,39.40
2017-11-03T09:57:27.694Z,39.70
2017-11-03T09:59:55.860Z,40.20
2017-11-03T10:02:23.921Z,39.80
2017-11-03T10:04:52.769Z,40.20
2017-11-03T10:07:21.601Z,37.60
2017-11-03T10:09:49.662Z,35.50
2017-11-03T10:12:17.751Z,33.50
2017-11-03T10:14:45.833Z,33.00
2017-11-03T10:17:14.712Z,30.30
2017-11-03T10:19:43.534Z,28.20
2017-11-03T10:22:11.668Z,26.40
2017-11-03T10:24:39.733Z,27.00
2017-11-03T10:27:07.813Z,24.90
2017-11-03T10:29:35.994Z,25.70
2017-11-03T10:32:04.061Z,25.50
2017-11-03T10:34:32.139Z,25.10
2017-11-03T10:37:00.213Z,23.90
2017-11-03T10:39:28.274Z,23.80
2017-11-03T10:41:56.359Z,23.60
2017-11-03T10:44:25.191Z,23.10
2017-11-03T10:46:53.268Z,22.50
2017-11-03T10:49:21.721Z,22.70
2017-11-03T10:51:49.861Z,23.30
2017-11-03T10:54:18.753Z,24.00
2017-11-03T10:56:46.929Z,23.30
2017-11-03T10:59:14.980Z,23.00
2017-11-03T11:01:43.045Z,21.90
2017-11-03T11:04:11.971Z,23.00
2017-11-03T11:06:40.141Z,20.90
2017-11-03T11:09:08.317Z,21.20
2017-11-03T11:11:36.406Z,20.20
2017-11-03T11:14:04.873Z,20.60
2017-11-03T11:16:32.935Z,21.40
2017-11-03T11:19:01.006Z,21.60
2017-11-03T11:21:29.066Z,21.30
2017-11-03T11:23:57.991Z,20.30
2017-11-03T11:26:26.764Z,19.40
2017-11-03T11:28:54.938Z,18.30
2017-11-03T11:31:23.110Z,18.20
2017-11-03T11:33:51.172Z,17.40
2017-11-03T11:36:19.258Z,17.40
2017-11-03T11:38:47.330Z,17.30
2017-11-03T11:41:15.397Z,17.20
2017-11-03T11:43:43.881Z,16.60
2017-11-03T11:46:11.941Z,16.90
2017-11-03T11:48:40.029Z,17.30
2017-11-03T11:51:08.317Z,17.60
2017-11-03T11:53:36.374Z,16.70
2017-11-03T11:56:04.433Z,16.10
2017-11-03T11:58:32.517Z,16.30
2017-11-03T12:01:00.578Z,16.30
2017-11-03T12:03:28.650Z,16.90
2017-11-03T12:05:57.548Z,16.00
2017-11-03T12:08:25.616Z,15.90
2017-11-03T12:10:53.798Z,16.20
2017-11-03T12:13:21.861Z,16.00
2017-11-03T12:15:49.928Z,15.80
2017-11-03T12:18:18.114Z,15.30
2017-11-03T12:20:46.178Z,16.30
2017-11-03T12:23:14.242Z,18.90
2017-11-03T12:25:42.334Z,21.40
2017-11-03T12:28:10.397Z,22.70
2017-11-03T12:30:38.469Z,24.70
2017-11-03T12:33:06.649Z,26.30
2017-11-03T12:35:34.718Z,28.60
2017-11-03T12:38:02.903Z,30.80
2017-11-03T12:40:31.006Z,31.90
2017-11-03T12:42:59.141Z,33.30
2017-11-03T12:45:27.241Z,32.80
2017-11-03T12:47:55.299Z,33.10
2017-11-03T12:50:23.483Z,32.60
2017-11-03T12:52:51.633Z,33.30
2017-11-03T12:55:19.810Z,32.10
2017-11-03T12:57:47.865Z,31.20
2017-11-03T13:00:16.369Z,31.40
2017-11-03T13:02:44.448Z,33.00
2017-11-03T13:05:12.510Z,34.80
2017-11-03T13:07:40.680Z,34.60
2017-11-03T13:10:08.750Z,33.30
2017-11-03T13:12:36.922Z,34.70
2017-11-03T13:15:04.986Z,36.40
2017-11-03T13:17:33.058Z,37.70
2017-11-03T13:20:01.137Z,37.70
2017-11-03T13:22:29.995Z,38.90
2017-11-03T13:24:58.822Z,40.20
2017-11-03T13:27:26.873Z,40.00
2017-11-03T13:29:55.369Z,40.50
2017-11-03T13:32:23.429Z,40.50
2017-11-03T13:34:52.347Z,41.10
2017-11-03T13:37:20.801Z,41.00
2017-11-03T13:39:48.885Z,41.50
2017-11-03T13:42:16.957Z,42.20
2017-11-03T13:44:45.039Z,42.20
2017-11-03T13:47:13.200Z,41.30
2017-11-03T13:49:41.385Z,40.80
2017-11-03T13:52:09.462Z,39.70
2017-11-03T13:54:37.624Z,39.70
2017-11-03T13:57:05.690Z,40.00
2017-11-03T13:59:33.795Z,38.50
2017-11-03T14:02:01.945Z,38.50
2017-11-03T14:04:31.305Z,36.90
2017-11-03T14:06:59.830Z,37.30
2017-11-03T14:09:28.305Z,38.20
2017-11-03T14:11:56.386Z,39.20
2017-11-03T14:14:24.449Z,39.20
2017-11-03T14:16:52.550Z,38.70
2017-11-03T14:19:20.593Z,38.90
2017-11-03T14:21:48.669Z,38.80
2017-11-03T14:24:16.737Z,40.60
2017-11-03T14:26:46.349Z,40.90
2017-11-03T14:29:14.433Z,41.50
2017-11-03T14:31:43.244Z,40.90
2017-11-03T14:34:11.386Z,41.40
2017-11-03T14:36:39.438Z,40.40
2017-11-03T14:39:07.499Z,41.40
2017-11-03T14:41:36.459Z,42.30
2017-11-03T14:44:04.517Z,42.30
2017-11-03T14:46:32.600Z,41.70
2017-11-03T14:49:01.149Z,39.90
2017-11-03T14:51:29.217Z,40.30
2017-11-03T14:53:57.294Z,39.90
2017-11-03T14:56:25.467Z,40.90
2017-11-03T14:58:53.530Z,42.30
2017-11-03T15:01:21.726Z,43.00
2017-11-03T15:03:49.896Z,43.40
2017-11-03T15:06:18.057Z,44.10
2017-11-03T15:08:46.129Z,44.50
2017-11-03T15:11:14.215Z,44.50
2017-11-03T15:13:42.647Z,44.40
2017-11-03T15:16:10.653Z,45.40
2017-11-03T15:18:38.834Z,46.80
2017-11-03T15:21:08.021Z,48.00
2017-11-03T15:23:36.196Z,46.90
2017-11-03T15:26:04.277Z,48.10
2017-11-03T15:28:32.449Z,48.00
2017-11-03T15:31:00.530Z,48.10
2017-11-03T15:33:29.405Z,48.30
2017-11-03T15:35:57.586Z,48.40
2017-11-03T15:38:25.658Z,48.20
2017-11-03T15:40:53.729Z,48.50
2017-11-03T15:43:21.907Z,48.50
2017-11-03T15:45:50.078Z,48.90
2017-11-03T15:48:18.154Z,48.80
2017-11-03T15:50:46.237Z,49.20
2017-11-03T15:53:14.324Z,49.50
2017-11-03T15:55:42.464Z,50.70
2017-11-03T15:58:10.517Z,50.60
2017-11-03T16:00:38.618Z,50.20
2017-11-03T16:03:06.782Z,50.30
2017-11-03T16:05:34.859Z,50.60
2017-11-03T16:08:02.934Z,52.00
2017-11-03T16:10:31.109Z,51.90
2017-11-03T16:12:59.300Z,55.40
2017-11-03T16:15:27.385Z,54.70
2017-11-03T16:17:55.526Z,55.20
2017-11-03T16:20:23.589Z,57.20
2017-11-03T16:22:51.661Z,55.60
2017-11-03T16:25:19.837Z,56.50
2017-11-03T16:27:48.009Z,56.20
2017-11-03T16:32:45.494Z,56.30
2017-11-03T16:35:13.553Z,56.60
2017-11-03T16:37:41.649Z,56.80
2017-11-03T16:40:09.713Z,56.10
2017-11-03T16:42:37.830Z,55.90
2017-11-03T16:45:06.782Z,57.10
2017-11-03T16:47:35.249Z,57.30
2017-11-03T16:50:03.297Z,57.50
2017-11-03T16:52:31.385Z,57.00
2017-11-03T16:54:59.573Z,57.10
2017-11-03T16:57:28.774Z,59.00
2017-11-03T16:59:57.042Z,57.80
2017-11-03T17:02:25.123Z,58.00
2017-11-03T17:04:53.297Z,58.80
2017-11-03T17:07:21.465Z,59.40
2017-11-03T17:09:51.046Z,59.30
2017-11-03T17:12:19.147Z,58.90
2017-11-03T17:14:47.218Z,59.30
2017-11-03T17:17:15.289Z,58.60
2017-11-03T17:19:43.365Z,59.30
2017-11-03T17:22:11.434Z,59.70
2017-11-03T17:24:39.522Z,59.70
2017-11-03T17:27:07.588Z,59.00
2017-11-03T17:29:35.662Z,59.50
2017-11-03T17:32:03.831Z,59.10
2017-11-03T17:34:31.998Z,59.80
2017-11-03T17:37:01.214Z,59.40
2017-11-03T17:39:29.375Z,59.40
2017-11-03T17:41:57.433Z,59.20
2017-11-03T17:44:25.612Z,61.70
2017-11-03T17:46:53.701Z,62.00
2017-11-03T17:49:21.761Z,62.50
2017-11-03T17:51:49.929Z,63.70
2017-11-03T17:54:18.120Z,62.60
2017-11-03T17:56:46.286Z,64.60
2017-11-03T17:59:14.358Z,65.20
2017-11-03T18:01:42.428Z,65.00
2017-11-03T18:04:10.503Z,64.80
2017-11-03T18:06:38.673Z,64.40
2017-11-03T18:09:06.749Z,64.00
2017-11-03T18:11:34.814Z,66.50
2017-11-03T18:14:02.864Z,65.40
2017-11-03T18:16:32.077Z,66.30
2017-11-03T18:19:01.276Z,65.40
2017-11-03T18:21:29.370Z,66.60
2017-11-03T18:23:57.426Z,66.10
2017-11-03T18:26:25.502Z,65.30
2017-11-03T18:28:53.570Z,64.50
2017-11-03T18:31:21.705Z,63.80
2017-11-03T18:33:50.955Z,65.60
2017-11-03T18:36:19.837Z,66.00
2017-11-03T18:38:49.381Z,65.10
2017-11-03T18:41:18.636Z,64.90
2017-11-03T18:43:47.186Z,64.80
2017-11-03T18:46:17.273Z,64.90
2017-11-03T18:48:45.438Z,64.40
2017-11-03T18:51:13.660Z,65.00
2017-11-03T18:53:42.503Z,64.80
2017-11-03T18:56:11.447Z,65.60
2017-11-03T18:58:40.667Z,65.20
2017-11-03T19:01:08.743Z,65.90
2017-11-03T19:03:37.597Z,65.30
2017-11-03T19:06:06.557Z,66.10
2017-11-03T19:08:35.772Z,66.80
2017-11-03T19:11:03.905Z,66.90
2017-11-03T19:13:33.213Z,65.90
2017-11-03T19:16:01.302Z,65.70
2017-11-03T19:18:30.187Z,67.30
2017-11-03T19:20:58.372Z,66.50
2017-11-03T19:23:27.383Z,66.50
2017-11-03T19:25:56.987Z,69.20
2017-11-03T19:28:26.596Z,68.30
2017-11-03T19:30:54.755Z,68.10
2017-11-03T19:33:22.883Z,69.60
2017-11-03T19:35:50.958Z,70.80
2017-11-03T19:38:19.078Z,71.00
2017-11-03T19:40:47.576Z,70.00
2017-11-03T19:43:16.426Z,70.50
2017-11-03T19:45:44.656Z,69.00
2017-11-03T19:50:42.466Z,70.60
2017-11-03T19:53:10.667Z,70.20
2017-11-03T19:55:38.873Z,70.50
2017-11-03T19:58:07.378Z,68.40
2017-11-03T20:00:36.321Z,70.80
2017-11-03T20:03:04.822Z,69.30
2017-11-03T20:05:32.918Z,69.50
2017-11-03T20:08:02.851Z,71.40
2017-11-03T20:10:31.337Z,72.50
2017-11-03T20:12:59.830Z,72.00
2017-11-03T20:15:27.914Z,73.40
2017-11-03T20:17:57.151Z,74.40
2017-11-03T20:20:25.902Z,74.60
2017-11-03T20:22:54.737Z,73.70
2017-11-03T20:25:23.810Z,71.90
2017-11-03T20:27:51.858Z,70.70
2017-11-03T20:30:20.028Z,70.90
2017-11-03T20:32:48.085Z,71.30
2017-11-03T20:35:16.257Z,70.50
2017-11-03T20:37:44.329Z,71.90
2017-11-03T20:40:12.413Z,71.60
2017-11-03T20:42:40.478Z,73.20
2017-11-03T20:45:08.553Z,72.30
2017-11-03T20:47:37.853Z,73.10
2017-11-03T20:50:05.926Z,75.00
2017-11-03T20:52:34.027Z,74.00
2017-11-03T20:55:02.170Z,74.10
2017-11-03T20:57:34.321Z,72.20
2017-11-03T21:00:03.275Z,73.80
2017-11-03T21:02:31.334Z,74.00
2017-11-03T21:04:59.477Z,77.00
2017-11-03T21:07:27.972Z,77.10
2017-11-03T21:09:56.077Z,76.40
2017-11-03T21:12:24.226Z,76.80
2017-11-03T21:14:52.332Z,76.80
2017-11-03T21:17:20.471Z,78.60
2017-11-03T21:19:48.661Z,77.70
2017-11-03T21:22:16.769Z,76.30
2017-11-03T21:24:45.616Z,77.50
2017-11-03T21:27:13.793Z,75.60
2017-11-03T21:29:41.880Z,76.20
2017-11-03T21:32:10.060Z,77.30
2017-11-03T21:34:38.169Z,77.30
2017-11-03T21:37:07.397Z,76.70
2017-11-03T21:39:35.699Z,75.40
2017-11-03T21:42:03.758Z,77.60
2017-11-03T21:44:31.836Z,75.70
2017-11-03T21:46:59.947Z,76.50
2017-11-03T21:49:29.155Z,75.50
2017-11-03T21:51:57.606Z,76.30
2017-11-03T21:54:26.485Z,78.70
2017-11-03T21:56:54.636Z,77.40
2017-11-03T21:59:22.788Z,76.60
2017-11-03T22:01:50.857Z,77.00
2017-11-03T22:04:19.028Z,75.80
2017-11-03T22:06:47.205Z,74.10
2017-11-03T22:09:15.281Z,77.20
2017-11-03T22:11:43.449Z,75.50
2017-11-03T22:14:11.534Z,75.80
2017-11-03T22:16:39.706Z,78.50
2017-11-03T22:19:07.773Z,77.80
2017-11-03T22:21:35.949Z,78.00
2017-11-03T22:24:04.077Z,78.80
2017-11-03T22:29:01.600Z,77.90
2017-11-03T22:31:29.668Z,77.10
2017-11-03T22:33:57.841Z,77.60
2017-11-03T22:36:26.019Z,78.30
2017-11-03T22:38:54.092Z,78.60
2017-11-03T22:41:22.270Z,76.20
2017-11-03T22:43:50.339Z,77.80
2017-11-03T22:46:18.417Z,77.60
2017-11-03T22:48:46.468Z,78.00
2017-11-03T22:51:14.559Z,76.70
2017-11-03T22:53:42.626Z,76.70
2017-11-03T22:56:10.682Z,77.20
2017-11-03T22:58:38.770Z,76.80
2017-11-03T23:01:06.854Z,77.70
2017-11-03T23:03:34.904Z,79.00
2017-11-03T23:06:02.977Z,77.70
2017-11-03T23:08:31.054Z,77.90
2017-11-03T23:10:59.132Z,77.30
2017-11-03T23:13:27.307Z,76.80
2017-11-03T23:15:55.378Z,78.80
2017-11-03T23:18:23.453Z,78.60
2017-11-03T23:20:51.613Z,77.70
2017-11-03T23:23:19.674Z,76.80
2017-11-03T23:25:47.766Z,78.30
2017-11-03T23:28:16.656Z,77.70
2017-11-03T23:30:45.105Z,78.80
2017-11-03T23:33:13.206Z,76.90
2017-11-03T23:35:41.282Z,77.50
2017-11-03T23:38:09.454Z,77.00
2017-11-03T23:40:37.656Z,77.60
2017-11-03T23:43:05.711Z,80.30
2017-11-03T23:45:33.874Z,78.50
2017-11-03T23:48:01.955Z,78.40
2017-11-03T23:50:30.014Z,76.80
2017-11-03T23:52:58.185Z,76.00
2017-11-03T23:55:26.257Z,78.20
2017-11-03T23:57:54.342Z,78.50
